createdAt,value
2018-01-19T00:01:45.712Z,87.87
2018-01-19T00:04:13.153Z,87.36
2018-01-19T00:06:40.585Z,88.07
2018-01-19T00:09:08.040Z,89.19
2018-01-19T00:11:35.476Z,88.65
2018-01-19T00:14:03.089Z,88.33
2018-01-19T00:16:30.549Z,87.68
2018-01-19T00:18:58.073Z,87.01
2018-01-19T00:21:25.532Z,87.11
2018-01-19T00:23:52.965Z,87.11
2018-01-19T00:26:20.718Z,86.42
2018-01-19T00:28:48.157Z,85.41
2018-01-19T00:31:15.591Z,86.28
2018-01-19T00:33:43.072Z,85.51
2018-01-19T00:36:10.512Z,84.46
2018-01-19T00:38:38.212Z,84.59
2018-01-19T00:41:05.649Z,84.72
2018-01-19T00:43:33.085Z,84.23
2018-01-19T00:46:00.545Z,85.10
2018-01-19T00:48:27.977Z,84.64
2018-01-19T00:50:55.543Z,85.33
2018-01-19T00:53:22.972Z,85.59
2018-01-19T00:55:50.409Z,85.06
2018-01-19T00:58:17.873Z,85.23
2018-01-19T01:00:45.306Z,84.41
2018-01-19T01:03:12.770Z,83.55
2018-01-19T01:05:40.228Z,83.35
2018-01-19T01:08:07.657Z,83.75
2018-01-19T01:10:35.116Z,83.92
2018-01-19T01:13:02.577Z,84.22
2018-01-19T01:15:30.257Z,84.90
2018-01-19T01:17:57.693Z,84.66
2018-01-19T01:20:25.171Z,85.47
2018-01-19T01:22:52.626Z,85.75
2018-01-19T01:25:20.089Z,85.69
2018-01-19T01:27:47.785Z,86.20
2018-01-19T01:30:15.225Z,85.69
2018-01-19T01:32:42.658Z,85.41
2018-01-19T01:35:10.119Z,85.82
2018-01-19T01:37:37.548Z,85.17
2018-01-19T01:40:05.334Z,83.69
2018-01-19T01:42:32.768Z,84.08
2018-01-19T01:45:00.205Z,83.70
2018-01-19T01:47:27.658Z,83.51
2018-01-19T01:49:55.120Z,84.18
2018-01-19T01:52:22.825Z,84.60
2018-01-19T01:54:50.257Z,85.67
2018-01-19T01:57:17.692Z,83.82
2018-01-19T01:59:45.145Z,83.28
2018-01-19T02:02:12.582Z,82.19
2018-01-19T02:04:40.209Z,82.37
2018-01-19T02:07:07.667Z,82.50
2018-01-19T02:09:35.096Z,82.43
2018-01-19T02:12:02.550Z,81.79
2018-01-19T02:14:29.980Z,81.96
2018-01-19T02:16:57.444Z,82.08
2018-01-19T02:19:24.880Z,83.06
2018-01-19T02:21:52.333Z,84.01
2018-01-19T02:24:19.797Z,83.97
2018-01-19T02:26:47.237Z,83.92
2018-01-19T02:29:14.727Z,84.56
2018-01-19T02:31:42.169Z,84.71
2018-01-19T02:34:09.608Z,84.15
2018-01-19T02:36:37.061Z,84.94
2018-01-19T02:39:04.494Z,85.31
2018-01-19T02:41:32.413Z,85.24
2018-01-19T02:43:59.858Z,84.04
2018-01-19T02:46:27.292Z,84.70
2018-01-19T02:48:54.749Z,84.40
2018-01-19T02:51:22.197Z,85.91
2018-01-19T02:53:49.921Z,86.57
2018-01-19T02:56:17.361Z,86.44
2018-01-19T02:58:44.792Z,86.62
2018-01-19T03:01:12.244Z,87.38
2018-01-19T03:03:39.679Z,86.79
2018-01-19T03:06:07.437Z,87.06
2018-01-19T03:08:34.880Z,88.07
2018-01-19T03:11:02.314Z,88.49
2018-01-19T03:13:29.781Z,88.56
2018-01-19T03:15:57.247Z,88.21
2018-01-19T03:18:25.124Z,86.89
2018-01-19T03:20:52.634Z,86.07
2018-01-19T03:23:20.090Z,84.06
2018-01-19T03:25:47.545Z,83.03
2018-01-19T03:28:14.977Z,82.82
2018-01-19T03:30:42.593Z,82.19
2018-01-19T03:33:10.026Z,82.39
2018-01-19T03:35:37.461Z,82.22
2018-01-19T03:38:04.917Z,82.14
2018-01-19T03:40:32.348Z,82.39
2018-01-19T03:42:59.832Z,82.46
2018-01-19T03:45:27.260Z,82.21
2018-01-19T03:47:54.693Z,82.12
2018-01-19T03:50:22.154Z,82.47
2018-01-19T03:52:49.644Z,82.53
2018-01-19T03:55:17.102Z,82.70
2018-01-19T03:57:44.535Z,82.30
2018-01-19T04:00:11.976Z,82.18
2018-01-19T04:02:39.425Z,81.95
2018-01-19T04:05:06.853Z,81.83
2018-01-19T04:07:34.568Z,81.83
2018-01-19T04:10:02.009Z,81.09
2018-01-19T04:12:29.449Z,81.13
2018-01-19T04:14:56.914Z,80.09
2018-01-19T04:17:24.352Z,80.50
2018-01-19T04:19:52.159Z,81.35
2018-01-19T04:22:19.593Z,80.38
2018-01-19T04:24:47.036Z,80.91
2018-01-19T04:27:14.493Z,80.53
2018-01-19T04:29:41.938Z,80.74
2018-01-19T04:32:09.642Z,80.54
2018-01-19T04:34:37.085Z,80.33
2018-01-19T04:37:04.513Z,79.97
2018-01-19T04:39:31.969Z,80.66
2018-01-19T04:41:59.401Z,80.76
2018-01-19T04:44:26.874Z,81.31
2018-01-19T04:46:54.308Z,81.33
2018-01-19T04:49:21.773Z,82.04
2018-01-19T04:51:49.224Z,81.64
2018-01-19T04:54:16.677Z,82.64
2018-01-19T04:56:44.309Z,82.40
2018-01-19T04:59:11.750Z,82.43
2018-01-19T05:01:39.180Z,83.06
2018-01-19T05:04:06.649Z,83.60
2018-01-19T05:06:34.097Z,84.36
2018-01-19T05:09:01.694Z,84.32
2018-01-19T05:11:29.130Z,85.12
2018-01-19T05:13:56.770Z,85.02
2018-01-19T05:16:24.228Z,85.41
2018-01-19T05:18:51.661Z,85.67
2018-01-19T05:21:19.494Z,85.62
2018-01-19T05:23:46.920Z,84.49
2018-01-19T05:26:14.357Z,83.52
2018-01-19T05:28:41.813Z,83.05
2018-01-19T05:31:09.350Z,82.61
2018-01-19T05:33:36.828Z,82.77
2018-01-19T05:36:04.281Z,82.99
2018-01-19T05:38:31.720Z,83.13
2018-01-19T05:40:59.173Z,82.54
2018-01-19T05:43:26.605Z,82.80
2018-01-19T05:45:54.273Z,82.72
2018-01-19T05:48:21.705Z,82.62
2018-01-19T05:50:49.157Z,82.57
2018-01-19T05:53:16.634Z,82.59
2018-01-19T05:55:44.068Z,82.45
2018-01-19T05:58:11.850Z,80.94
2018-01-19T06:00:39.311Z,81.23
2018-01-19T06:03:06.769Z,81.29
2018-01-19T06:05:34.249Z,80.56
2018-01-19T06:08:01.689Z,80.64
2018-01-19T06:10:29.444Z,80.43
2018-01-19T06:12:56.894Z,80.70
2018-01-19T06:15:24.336Z,81.44
2018-01-19T06:17:51.796Z,80.79
2018-01-19T06:20:19.233Z,81.73
2018-01-19T06:22:46.929Z,80.73
2018-01-19T06:25:14.387Z,80.16
2018-01-19T06:27:41.831Z,80.80
2018-01-19T06:30:09.305Z,81.00
2018-01-19T06:32:36.737Z,81.22
2018-01-19T06:35:04.428Z,80.73
2018-01-19T06:37:31.869Z,81.06
2018-01-19T06:39:59.393Z,81.33
2018-01-19T06:42:27.074Z,82.65
2018-01-19T06:44:54.517Z,82.27
2018-01-19T06:47:22.132Z,82.18
2018-01-19T06:49:49.572Z,82.64
2018-01-19T06:52:17.009Z,83.05
2018-01-19T06:54:44.486Z,82.73
2018-01-19T06:57:11.939Z,81.65
2018-01-19T06:59:39.404Z,79.79
2018-01-19T07:02:06.847Z,78.84
2018-01-19T07:04:34.281Z,80.58
2018-01-19T07:07:01.737Z,80.37
2018-01-19T07:09:29.171Z,80.92
2018-01-19T07:11:56.792Z,80.29
2018-01-19T07:14:24.231Z,79.60
2018-01-19T07:16:51.660Z,80.17
2018-01-19T07:19:19.116Z,79.94
2018-01-19T07:21:46.564Z,79.93
2018-01-19T07:24:14.213Z,78.99
2018-01-19T07:26:41.657Z,79.65
2018-01-19T07:29:09.097Z,79.15
2018-01-19T07:31:36.564Z,79.39
2018-01-19T07:34:04.257Z,78.75
2018-01-19T07:36:32.017Z,78.48
2018-01-19T07:38:59.449Z,79.23
2018-01-19T07:41:26.882Z,78.75
2018-01-19T07:43:54.342Z,77.91
2018-01-19T07:46:21.799Z,77.33
2018-01-19T07:48:49.376Z,77.70
2018-01-19T07:51:16.833Z,76.95
2018-01-19T07:53:44.268Z,76.93
2018-01-19T07:56:11.726Z,76.40
2018-01-19T07:58:39.169Z,75.59
2018-01-19T08:01:07.031Z,76.72
2018-01-19T08:03:34.465Z,77.06
2018-01-19T08:06:01.904Z,75.88
2018-01-19T08:08:29.357Z,76.17
2018-01-19T08:10:56.807Z,75.64
2018-01-19T08:13:24.328Z,75.59
2018-01-19T08:15:51.776Z,74.67
2018-01-19T08:18:19.226Z,74.70
2018-01-19T08:20:46.683Z,75.00
2018-01-19T08:23:14.113Z,73.92
2018-01-19T08:25:41.898Z,73.99
2018-01-19T08:28:09.457Z,73.99
2018-01-19T08:30:36.961Z,73.92
2018-01-19T08:33:04.413Z,73.80
2018-01-19T08:35:31.853Z,74.26
2018-01-19T08:37:59.595Z,74.37
2018-01-19T08:40:27.025Z,74.06
2018-01-19T08:42:54.503Z,74.37
2018-01-19T08:45:21.964Z,74.08
2018-01-19T08:47:49.404Z,74.60
2018-01-19T08:50:17.078Z,75.41
2018-01-19T08:52:44.525Z,74.37
2018-01-19T08:55:11.972Z,74.25
2018-01-19T08:57:39.429Z,74.47
2018-01-19T09:00:06.861Z,74.25
2018-01-19T09:02:34.360Z,73.21
2018-01-19T09:05:02.654Z,72.86
2018-01-19T09:07:30.089Z,72.99
2018-01-19T09:09:57.545Z,72.36
2018-01-19T09:12:24.985Z,72.39
2018-01-19T09:14:52.621Z,71.58
2018-01-19T09:17:20.057Z,71.89
2018-01-19T09:19:47.501Z,71.88
2018-01-19T09:22:14.964Z,71.63
2018-01-19T09:24:42.400Z,70.94
2018-01-19T09:27:10.121Z,71.04
2018-01-19T09:29:37.564Z,70.42
2018-01-19T09:32:05.020Z,70.35
2018-01-19T09:34:32.492Z,70.35
2018-01-19T09:36:59.935Z,69.19
2018-01-19T09:39:27.638Z,69.38
2018-01-19T09:41:55.077Z,69.96
2018-01-19T09:44:22.516Z,68.21
2018-01-19T09:46:49.992Z,68.65
2018-01-19T09:49:17.428Z,68.21
2018-01-19T09:51:45.125Z,67.36
2018-01-19T09:54:12.557Z,66.97
2018-01-19T09:56:40.009Z,66.87
2018-01-19T09:59:07.929Z,67.66
2018-01-19T10:01:35.365Z,66.21
2018-01-19T10:04:03.441Z,66.93
2018-01-19T10:06:30.877Z,66.90
2018-01-19T10:08:58.336Z,67.35
2018-01-19T10:11:25.789Z,67.03
2018-01-19T10:13:53.237Z,68.44
2018-01-19T10:16:20.876Z,67.90
2018-01-19T10:18:48.456Z,67.85
2018-01-19T10:21:15.893Z,66.77
2018-01-19T10:23:43.360Z,66.78
2018-01-19T10:26:10.804Z,66.52
2018-01-19T10:28:38.508Z,66.12
2018-01-19T10:31:05.941Z,66.16
2018-01-19T10:33:33.436Z,64.98
2018-01-19T10:36:00.912Z,66.13
2018-01-19T10:38:28.348Z,64.90
2018-01-19T10:40:56.003Z,63.77
2018-01-19T10:43:23.432Z,64.93
2018-01-19T10:45:50.869Z,64.74
2018-01-19T10:48:18.328Z,64.30
2018-01-19T10:50:45.769Z,64.04
2018-01-19T10:53:13.337Z,63.96
2018-01-19T10:55:40.768Z,63.78
2018-01-19T10:58:08.305Z,65.29
2018-01-19T11:00:35.784Z,63.93
2018-01-19T11:03:03.236Z,64.03
2018-01-19T11:05:30.977Z,64.27
2018-01-19T11:07:58.404Z,64.33
2018-01-19T11:10:25.853Z,65.00
2018-01-19T11:12:53.309Z,64.89
2018-01-19T11:15:20.880Z,64.42
2018-01-19T11:17:48.587Z,63.95
2018-01-19T11:20:16.024Z,64.52
2018-01-19T11:22:43.457Z,63.98
2018-01-19T11:25:10.913Z,64.39
2018-01-19T11:27:38.349Z,63.11
2018-01-19T11:30:06.065Z,63.53
2018-01-19T11:32:33.501Z,63.29
2018-01-19T11:35:01.021Z,63.01
2018-01-19T11:37:28.478Z,62.93
2018-01-19T11:39:55.908Z,63.42
2018-01-19T11:42:23.392Z,63.39
2018-01-19T11:44:50.820Z,64.20
2018-01-19T11:47:18.273Z,63.98
2018-01-19T11:49:45.732Z,63.19
2018-01-19T11:52:13.164Z,62.75
2018-01-19T11:54:41.021Z,62.29
2018-01-19T11:57:08.453Z,63.54
2018-01-19T11:59:35.891Z,61.69
2018-01-19T12:02:03.350Z,62.90
2018-01-19T12:04:30.788Z,61.38
2018-01-19T12:06:58.409Z,62.03
2018-01-19T12:09:25.897Z,60.71
2018-01-19T12:11:53.330Z,60.48
2018-01-19T12:14:20.799Z,61.38
2018-01-19T12:16:48.237Z,60.63
2018-01-19T12:19:15.725Z,59.81
2018-01-19T12:21:43.173Z,57.80
2018-01-19T12:24:10.864Z,58.11
2018-01-19T12:26:38.324Z,58.49
2018-01-19T12:29:05.757Z,58.28
2018-01-19T12:31:33.224Z,57.55
2018-01-19T12:34:00.658Z,57.38
2018-01-19T12:36:28.092Z,57.13
2018-01-19T12:38:55.558Z,58.31
2018-01-19T12:41:22.993Z,55.68
2018-01-19T12:43:50.703Z,55.65
2018-01-19T12:46:18.136Z,55.90
2018-01-19T12:48:45.565Z,55.64
2018-01-19T12:51:13.041Z,54.17
2018-01-19T12:53:40.481Z,53.82
2018-01-19T12:56:08.068Z,54.98
2018-01-19T12:58:35.509Z,56.02
2018-01-19T13:01:02.988Z,56.26
2018-01-19T13:03:30.745Z,56.82
2018-01-19T13:05:58.185Z,56.26
2018-01-19T13:08:25.648Z,56.98
2018-01-19T13:10:53.082Z,57.85
2018-01-19T13:13:20.517Z,58.00
2018-01-19T13:15:47.976Z,57.61
2018-01-19T13:18:15.411Z,57.30
2018-01-19T13:20:43.026Z,58.57
2018-01-19T13:23:10.486Z,56.28
2018-01-19T13:25:37.920Z,57.26
2018-01-19T13:28:05.381Z,56.53
2018-01-19T13:30:32.832Z,57.75
2018-01-19T13:33:00.725Z,58.62
2018-01-19T13:35:28.174Z,59.23
2018-01-19T13:37:55.613Z,59.17
2018-01-19T13:40:23.069Z,60.39
2018-01-19T13:42:50.529Z,61.29
2018-01-19T13:45:18.041Z,62.08
2018-01-19T13:47:45.473Z,64.15
2018-01-19T13:50:12.904Z,66.08
2018-01-19T13:52:40.365Z,66.29
2018-01-19T13:55:07.803Z,66.96
2018-01-19T13:57:35.260Z,66.83
2018-01-19T14:00:02.764Z,67.14
2018-01-19T14:02:30.212Z,67.78
2018-01-19T14:04:57.676Z,67.05
2018-01-19T14:07:25.121Z,66.44
2018-01-19T14:09:52.594Z,67.72
2018-01-19T14:12:20.057Z,68.52
2018-01-19T14:14:47.492Z,68.79
2018-01-19T14:17:14.925Z,68.26
2018-01-19T14:19:42.381Z,68.75
2018-01-19T14:22:09.836Z,69.03
2018-01-19T14:24:37.296Z,69.64
2018-01-19T14:27:04.748Z,69.85
2018-01-19T14:29:32.181Z,69.80
2018-01-19T14:31:59.613Z,69.79
2018-01-19T14:34:27.083Z,69.77
2018-01-19T14:36:54.521Z,69.71
2018-01-19T14:39:21.989Z,69.05
2018-01-19T14:41:49.458Z,69.53
2018-01-19T14:44:16.942Z,69.79
2018-01-19T14:46:44.398Z,69.66
2018-01-19T14:49:12.078Z,69.10
2018-01-19T14:51:39.525Z,69.39
2018-01-19T14:54:06.994Z,70.31
2018-01-19T14:56:34.654Z,69.97
2018-01-19T14:59:02.088Z,70.08
2018-01-19T15:01:29.543Z,68.45
2018-01-19T15:03:57.320Z,68.65
2018-01-19T15:06:24.769Z,68.98
2018-01-19T15:08:52.228Z,69.46
2018-01-19T15:11:19.780Z,69.84
2018-01-19T15:13:47.385Z,70.89
2018-01-19T15:16:14.817Z,73.24
2018-01-19T15:18:42.316Z,77.29
2018-01-19T15:21:09.803Z,78.21
2018-01-19T15:23:37.276Z,81.11
2018-01-19T15:26:05.053Z,79.14
2018-01-19T15:28:32.541Z,81.75
2018-01-19T15:30:59.993Z,82.51
2018-01-19T15:33:27.453Z,82.54
2018-01-19T15:35:54.884Z,83.15
2018-01-19T15:38:22.324Z,83.15
2018-01-19T15:40:49.995Z,84.15
2018-01-19T15:43:17.462Z,83.43
2018-01-19T15:45:44.894Z,83.07
2018-01-19T15:48:12.377Z,83.69
2018-01-19T15:50:39.809Z,83.95
2018-01-19T15:53:07.259Z,84.69
2018-01-19T15:55:34.892Z,85.39
2018-01-19T15:58:02.405Z,85.75
2018-01-19T16:00:29.849Z,85.73
2018-01-19T16:02:57.341Z,85.85
2018-01-19T16:05:24.784Z,85.17
2018-01-19T16:07:52.539Z,85.07
2018-01-19T16:10:19.986Z,85.46
2018-01-19T16:12:47.418Z,85.88
2018-01-19T16:15:15.052Z,85.87
2018-01-19T16:17:42.499Z,86.11
2018-01-19T16:20:10.281Z,85.59
2018-01-19T16:22:37.744Z,85.73
2018-01-19T16:25:05.184Z,86.90
2018-01-19T16:27:32.652Z,86.63
2018-01-19T16:30:00.102Z,85.71
2018-01-19T16:32:28.019Z,85.82
2018-01-19T16:34:55.534Z,86.22
2018-01-19T16:37:22.964Z,86.50
2018-01-19T16:39:50.429Z,86.75
2018-01-19T16:42:17.861Z,86.89
2018-01-19T16:44:45.543Z,86.73
2018-01-19T16:47:12.969Z,86.84
2018-01-19T16:49:40.429Z,87.40
2018-01-19T16:52:07.893Z,87.63
2018-01-19T16:54:35.338Z,86.71
2018-01-19T16:57:02.941Z,85.88
2018-01-19T16:59:30.383Z,86.34
2018-01-19T17:01:57.817Z,85.66
2018-01-19T17:04:25.296Z,84.78
2018-01-19T17:06:52.755Z,84.87
2018-01-19T17:09:20.413Z,85.39
2018-01-19T17:11:47.870Z,85.67
2018-01-19T17:14:15.309Z,85.26
2018-01-19T17:16:42.787Z,85.34
2018-01-19T17:19:10.244Z,85.64
2018-01-19T17:21:37.961Z,85.30
2018-01-19T17:24:05.397Z,85.79
2018-01-19T17:26:32.828Z,85.19
2018-01-19T17:29:00.304Z,85.37
2018-01-19T17:31:27.849Z,85.73
2018-01-19T17:33:55.320Z,85.80
2018-01-19T17:36:22.754Z,86.30
2018-01-19T17:38:50.188Z,86.25
2018-01-19T17:41:17.645Z,86.32
2018-01-19T17:43:45.088Z,86.00
2018-01-19T17:46:12.748Z,86.38
2018-01-19T17:48:40.195Z,86.12
2018-01-19T17:51:07.673Z,86.00
2018-01-19T17:53:35.140Z,86.55
2018-01-19T17:56:02.596Z,86.77
2018-01-19T17:58:30.228Z,87.35
2018-01-19T18:00:57.658Z,87.22
2018-01-19T18:03:25.113Z,87.15
2018-01-19T18:05:52.581Z,87.30
2018-01-19T18:08:20.025Z,87.22
2018-01-19T18:10:47.654Z,87.79
2018-01-19T18:13:15.091Z,88.11
2018-01-19T18:15:42.528Z,87.47
2018-01-19T18:18:09.985Z,86.89
2018-01-19T18:20:37.433Z,87.19
2018-01-19T18:23:05.060Z,86.44
2018-01-19T18:25:32.509Z,86.50
2018-01-19T18:27:59.961Z,86.96
2018-01-19T18:30:27.459Z,86.99
2018-01-19T18:32:55.098Z,87.26
2018-01-19T18:35:22.911Z,87.25
2018-01-19T18:37:50.421Z,87.19
2018-01-19T18:40:18.001Z,87.44
2018-01-19T18:42:45.519Z,86.90
2018-01-19T18:45:13.145Z,87.09
2018-01-19T18:47:40.734Z,86.93
2018-01-19T18:50:08.173Z,87.51
2018-01-19T18:52:35.724Z,87.42
2018-01-19T18:55:03.209Z,87.43
2018-01-19T18:57:30.655Z,88.32
2018-01-19T18:59:58.373Z,86.97
2018-01-19T19:02:25.817Z,87.45
2018-01-19T19:04:53.258Z,87.22
2018-01-19T19:07:20.716Z,86.95
2018-01-19T19:09:48.165Z,87.66
2018-01-19T19:12:15.957Z,87.53
2018-01-19T19:14:43.396Z,87.65
2018-01-19T19:17:10.877Z,87.13
2018-01-19T19:19:38.365Z,87.65
2018-01-19T19:22:05.823Z,87.87
2018-01-19T19:24:33.399Z,87.96
2018-01-19T19:27:00.849Z,88.31
2018-01-19T19:29:28.291Z,88.04
2018-01-19T19:31:55.757Z,88.14
2018-01-19T19:34:24.146Z,88.24
2018-01-19T19:36:51.720Z,87.87
2018-01-19T19:39:19.173Z,88.08
2018-01-19T19:41:46.633Z,88.19
2018-01-19T19:44:14.113Z,89.04
2018-01-19T19:46:41.562Z,88.57
2018-01-19T19:49:09.130Z,88.38
2018-01-19T19:51:36.601Z,89.25
2018-01-19T19:54:04.553Z,89.25
2018-01-19T19:56:32.035Z,88.75
2018-01-19T19:58:59.485Z,88.78
2018-01-19T20:01:27.916Z,88.38
2018-01-19T20:03:55.359Z,88.55
2018-01-19T20:06:22.804Z,88.83
2018-01-19T20:08:50.273Z,89.46
2018-01-19T20:11:17.719Z,88.78
2018-01-19T20:13:45.549Z,88.09
2018-01-19T20:16:12.984Z,88.69
2018-01-19T20:18:40.450Z,89.31
2018-01-19T20:21:07.908Z,89.58
2018-01-19T20:23:35.354Z,88.90
2018-01-19T20:26:02.962Z,89.04
2018-01-19T20:28:30.415Z,89.36
2018-01-19T20:30:58.469Z,89.70
2018-01-19T20:33:25.934Z,90.05
2018-01-19T20:35:53.385Z,90.02
2018-01-19T20:38:21.849Z,90.33
2018-01-19T20:40:49.648Z,90.09
2018-01-19T20:43:17.087Z,90.46
2018-01-19T20:45:45.350Z,90.17
2018-01-19T20:48:12.793Z,89.82
2018-01-19T20:50:40.289Z,89.78
2018-01-19T20:53:07.747Z,89.99
2018-01-19T20:55:35.184Z,89.82
2018-01-19T20:58:02.643Z,89.71
2018-01-19T21:00:30.087Z,89.49
2018-01-19T21:02:57.743Z,89.50
2018-01-19T21:05:25.205Z,89.70
2018-01-19T21:07:52.693Z,89.92
2018-01-19T21:10:20.157Z,90.01
2018-01-19T21:12:47.608Z,90.34
2018-01-19T21:15:15.344Z,89.97
2018-01-19T21:17:42.790Z,89.49
2018-01-19T21:20:10.226Z,90.36
2018-01-19T21:22:37.696Z,90.06
2018-01-19T21:25:06.073Z,89.36
2018-01-19T21:27:33.845Z,89.46
2018-01-19T21:30:01.280Z,89.54
2018-01-19T21:32:28.720Z,89.39
2018-01-19T21:34:56.185Z,87.97
2018-01-19T21:37:23.675Z,88.28
2018-01-19T21:39:51.333Z,89.16
2018-01-19T21:42:18.771Z,89.72
2018-01-19T21:44:46.205Z,89.20
2018-01-19T21:47:13.759Z,89.43
2018-01-19T21:49:41.221Z,89.39
2018-01-19T21:52:08.826Z,89.01
2018-01-19T21:54:36.265Z,89.28
2018-01-19T21:57:03.700Z,89.53
2018-01-19T21:59:31.173Z,89.94
2018-01-19T22:01:58.612Z,90.01
2018-01-19T22:04:26.186Z,90.07
2018-01-19T22:06:53.641Z,89.74
2018-01-19T22:09:21.111Z,90.17
2018-01-19T22:11:48.588Z,90.35
2018-01-19T22:14:16.029Z,90.12
2018-01-19T22:16:43.581Z,90.25
2018-01-19T22:19:11.021Z,90.91
2018-01-19T22:21:38.467Z,90.94
2018-01-19T22:24:05.984Z,91.04
2018-01-19T22:26:33.461Z,90.86
2018-01-19T22:29:00.968Z,90.37
2018-01-19T22:31:28.413Z,90.34
2018-01-19T22:33:55.897Z,90.34
2018-01-19T22:36:23.358Z,89.88
2018-01-19T22:38:50.804Z,89.49
2018-01-19T22:41:18.669Z,89.20
2018-01-19T22:43:46.126Z,89.12
2018-01-19T22:46:13.721Z,88.87
2018-01-19T22:48:41.192Z,88.64
2018-01-19T22:51:08.638Z,88.17
2018-01-19T22:53:36.643Z,87.78
2018-01-19T22:56:04.080Z,87.79
2018-01-19T22:58:31.554Z,87.56
2018-01-19T23:00:59.095Z,86.50
2018-01-19T23:03:26.547Z,86.63
2018-01-19T23:05:54.463Z,86.78
2018-01-19T23:08:21.901Z,86.98
2018-01-19T23:10:49.348Z,86.46
2018-01-19T23:13:16.804Z,86.64
2018-01-19T23:15:44.274Z,86.30
2018-01-19T23:18:11.769Z,86.63
2018-01-19T23:20:39.209Z,86.62
2018-01-19T23:23:06.892Z,86.47
2018-01-19T23:25:34.348Z,86.30
2018-01-19T23:28:01.781Z,86.46
2018-01-19T23:30:29.256Z,86.31
2018-01-19T23:32:56.692Z,86.45
2018-01-19T23:35:24.134Z,86.64
2018-01-19T23:37:51.593Z,86.27
2018-01-19T23:40:19.052Z,85.95
2018-01-19T23:42:46.521Z,85.68
2018-01-19T23:45:13.957Z,86.20
2018-01-19T23:47:41.409Z,86.24
2018-01-19T23:50:08.883Z,85.78
2018-01-19T23:52:36.330Z,85.63
2018-01-19T23:55:04.002Z,86.01
2018-01-19T23:57:31.464Z,85.56
2018-01-19T23:59:58.900Z,85.38
